createdAt,value
2023-04-16T00:01:14.063Z,73.80
2023-04-16T00:03:41.541Z,74.08
2023-04-16T00:06:12.667Z,74.05
2023-04-16T00:08:41.310Z,73.97
2023-04-16T00:11:08.673Z,74.14
2023-04-16T00:13:35.937Z,74.44
2023-04-16T00:16:03.284Z,74.51
2023-04-16T00:18:32.214Z,74.17
2023-04-16T00:20:59.809Z,74.38
2023-04-16T00:23:26.989Z,74.27
2023-04-16T00:25:54.199Z,73.99
2023-04-16T00:28:22.721Z,73.89
2023-04-16T00:30:50.068Z,73.78
2023-04-16T00:33:17.820Z,73.99
2023-04-16T00:35:48.531Z,73.80
2023-04-16T00:38:16.104Z,73.89
2023-04-16T00:40:43.212Z,73.73
2023-04-16T00:43:10.464Z,73.68
2023-04-16T00:45:37.732Z,73.57
2023-04-16T00:48:06.111Z,73.22
2023-04-16T00:50:34.876Z,72.91
2023-04-16T00:53:02.798Z,72.84
2023-04-16T00:55:31.696Z,72.72
2023-04-16T00:57:58.824Z,72.66
2023-04-16T01:00:27.090Z,72.77
2023-04-16T01:02:54.966Z,72.76
2023-04-16T01:05:22.227Z,73.00
2023-04-16T01:07:49.287Z,72.95
2023-04-16T01:10:16.318Z,72.91
2023-04-16T01:12:43.454Z,72.70
2023-04-16T01:15:11.551Z,72.07
2023-04-16T01:17:38.818Z,72.16
2023-04-16T01:20:06.659Z,72.08
2023-04-16T01:22:33.777Z,72.21
2023-04-16T01:25:01.138Z,72.47
2023-04-16T01:27:28.271Z,72.57
2023-04-16T01:29:56.449Z,72.11
2023-04-16T01:32:33.478Z,71.55
2023-04-16T01:35:00.841Z,71.32
2023-04-16T01:37:27.938Z,71.46
2023-04-16T01:39:55.283Z,71.50
2023-04-16T01:42:22.315Z,71.61
2023-04-16T01:44:50.864Z,71.41
2023-04-16T01:47:18.232Z,71.63
2023-04-16T01:49:48.293Z,71.60
2023-04-16T01:52:15.670Z,71.93
2023-04-16T01:54:42.697Z,71.80
2023-04-16T01:57:10.123Z,72.48
2023-04-16T01:59:37.548Z,72.85
2023-04-16T02:02:11.459Z,73.24
2023-04-16T02:04:45.296Z,73.79
2023-04-16T02:07:12.900Z,73.98
2023-04-16T02:09:41.300Z,74.28
2023-04-16T02:12:11.446Z,74.42
2023-04-16T02:14:38.590Z,74.68
2023-04-16T02:17:05.792Z,74.91
2023-04-16T02:19:41.460Z,74.74
2023-04-16T02:22:09.865Z,74.73
2023-04-16T02:24:36.948Z,74.98
2023-04-16T02:27:08.239Z,74.66
2023-04-16T02:29:36.135Z,74.74
2023-04-16T02:32:10.661Z,74.97
2023-04-16T02:34:40.350Z,74.88
2023-04-16T02:37:08.280Z,75.04
2023-04-16T02:39:35.424Z,74.93
2023-04-16T02:42:02.958Z,75.08
2023-04-16T02:44:30.124Z,74.86
2023-04-16T02:46:57.132Z,74.44
2023-04-16T02:49:24.255Z,74.04
2023-04-16T02:51:51.255Z,73.94
2023-04-16T02:54:18.376Z,73.96
2023-04-16T02:56:45.655Z,73.86
2023-04-16T02:59:12.854Z,73.78
2023-04-16T03:01:40.076Z,74.16
2023-04-16T03:04:07.313Z,74.28
2023-04-16T03:06:34.461Z,74.54
2023-04-16T03:09:01.661Z,74.42
2023-04-16T03:11:28.793Z,74.25
2023-04-16T03:13:56.791Z,74.22
2023-04-16T03:16:24.124Z,73.36
2023-04-16T03:18:51.273Z,73.85
2023-04-16T03:21:19.316Z,73.40
2023-04-16T03:23:46.356Z,73.04
2023-04-16T03:26:13.357Z,72.63
2023-04-16T03:28:40.479Z,72.16
2023-04-16T03:31:08.009Z,71.21
2023-04-16T03:33:36.753Z,70.69
2023-04-16T03:36:05.201Z,70.55
2023-04-16T03:38:32.382Z,70.28
2023-04-16T03:40:59.893Z,69.55
2023-04-16T03:43:27.469Z,69.03
2023-04-16T03:45:54.682Z,69.16
2023-04-16T03:48:23.828Z,68.88
2023-04-16T03:50:51.059Z,68.59
2023-04-16T03:53:19.999Z,68.62
2023-04-16T03:55:53.677Z,68.43
2023-04-16T03:58:21.957Z,68.34
2023-04-16T04:00:49.114Z,68.07
2023-04-16T04:03:18.044Z,68.13
2023-04-16T04:05:47.785Z,67.45
2023-04-16T04:08:18.873Z,67.37
2023-04-16T04:10:46.320Z,66.79
2023-04-16T04:13:15.239Z,66.42
2023-04-16T04:15:44.535Z,66.37
2023-04-16T04:18:11.672Z,65.83
2023-04-16T04:20:41.899Z,65.04
2023-04-16T04:23:09.038Z,64.72
2023-04-16T04:25:36.193Z,64.74
2023-04-16T04:28:03.368Z,64.87
2023-04-16T04:30:30.860Z,64.84
2023-04-16T04:32:58.523Z,64.94
2023-04-16T04:35:25.708Z,64.57
2023-04-16T04:37:53.241Z,64.73
2023-04-16T04:40:21.218Z,64.54
2023-04-16T04:42:48.501Z,64.57
2023-04-16T04:45:16.136Z,64.65
2023-04-16T04:47:44.299Z,64.18
2023-04-16T04:50:12.003Z,64.31
2023-04-16T04:52:39.806Z,64.06
2023-04-16T04:55:08.446Z,64.04
2023-04-16T04:57:36.644Z,64.44
2023-04-16T05:00:06.268Z,64.18
2023-04-16T05:02:42.076Z,64.34
2023-04-16T05:05:09.375Z,64.39
2023-04-16T05:07:36.623Z,64.69
2023-04-16T05:10:03.689Z,64.45
2023-04-16T05:12:31.057Z,64.71
2023-04-16T05:14:58.079Z,65.05
2023-04-16T05:17:25.200Z,67.03
2023-04-16T05:19:52.633Z,70.78
2023-04-16T05:22:19.724Z,75.69
2023-04-16T05:24:46.731Z,78.38
2023-04-16T05:27:13.900Z,82.71
2023-04-16T05:29:41.016Z,85.40
2023-04-16T05:32:08.476Z,89.22
2023-04-16T05:34:35.624Z,91.54
2023-04-16T05:37:02.953Z,93.22
2023-04-16T05:39:30.070Z,94.85
2023-04-16T05:41:57.209Z,96.08
2023-04-16T05:44:24.261Z,97.29
2023-04-16T05:46:51.454Z,97.81
2023-04-16T05:49:22.232Z,98.83
2023-04-16T05:51:50.846Z,99.61
2023-04-16T05:54:18.260Z,99.73
2023-04-16T05:56:45.637Z,99.00
2023-04-16T05:59:14.064Z,95.83
2023-04-16T06:01:41.497Z,91.38
2023-04-16T06:04:08.782Z,89.54
2023-04-16T06:06:37.914Z,89.18
2023-04-16T06:09:05.059Z,90.44
2023-04-16T06:11:32.644Z,90.60
2023-04-16T06:14:00.754Z,91.17
2023-04-16T06:16:27.854Z,91.50
2023-04-16T06:18:54.961Z,91.57
2023-04-16T06:21:22.093Z,90.97
2023-04-16T06:23:49.169Z,89.80
2023-04-16T06:26:16.323Z,89.13
2023-04-16T06:28:43.497Z,89.08
2023-04-16T06:31:10.550Z,89.16
2023-04-16T06:33:37.675Z,89.30
2023-04-16T06:36:04.902Z,88.08
2023-04-16T06:38:32.189Z,88.12
2023-04-16T06:40:59.839Z,88.79
2023-04-16T06:43:27.263Z,89.53
2023-04-16T06:45:55.777Z,88.83
2023-04-16T06:48:22.958Z,90.29
2023-04-16T06:50:50.553Z,91.39
2023-04-16T06:53:18.277Z,91.72
2023-04-16T06:55:45.304Z,92.08
2023-04-16T06:58:12.325Z,92.14
2023-04-16T07:00:39.479Z,92.04
2023-04-16T07:03:06.707Z,92.35
2023-04-16T07:05:33.839Z,93.44
2023-04-16T07:08:01.130Z,94.27
2023-04-16T07:10:28.187Z,93.93
2023-04-16T07:12:55.440Z,93.17
2023-04-16T07:15:22.680Z,92.62
2023-04-16T07:17:49.852Z,92.74
2023-04-16T07:20:16.992Z,92.62
2023-04-16T07:22:44.531Z,91.61
2023-04-16T07:25:11.622Z,91.70
2023-04-16T07:27:39.009Z,91.08
2023-04-16T07:30:07.585Z,91.22
2023-04-16T07:32:34.921Z,89.54
2023-04-16T07:35:02.165Z,88.31
2023-04-16T07:37:29.960Z,83.94
2023-04-16T07:39:58.100Z,82.06
2023-04-16T07:42:26.181Z,79.11
2023-04-16T07:44:55.744Z,78.05
2023-04-16T07:47:27.268Z,76.03
2023-04-16T07:49:54.543Z,73.43
2023-04-16T07:52:21.595Z,71.70
2023-04-16T07:54:48.743Z,71.49
2023-04-16T07:57:16.703Z,68.51
2023-04-16T07:59:44.025Z,65.89
2023-04-16T08:02:14.863Z,62.99
2023-04-16T08:04:43.041Z,63.53
2023-04-16T08:07:10.525Z,60.39
2023-04-16T08:09:48.533Z,57.00
2023-04-16T08:12:17.366Z,56.75
2023-04-16T08:14:46.023Z,53.44
2023-04-16T08:17:13.858Z,50.71
2023-04-16T08:19:41.193Z,51.14
2023-04-16T08:22:08.277Z,51.04
2023-04-16T08:24:35.588Z,50.58
2023-04-16T08:27:15.436Z,49.05
2023-04-16T08:29:45.678Z,50.75
2023-04-16T08:32:13.142Z,49.61
2023-04-16T08:34:40.236Z,49.48
2023-04-16T08:37:07.455Z,48.44
2023-04-16T08:39:35.340Z,49.11
2023-04-16T08:42:06.285Z,48.42
2023-04-16T08:44:37.119Z,48.35
2023-04-16T08:47:09.654Z,48.85
2023-04-16T08:49:43.667Z,49.54
2023-04-16T08:52:20.720Z,49.09
2023-04-16T08:55:07.442Z,48.05
2023-04-16T08:57:41.393Z,47.94
2023-04-16T09:00:09.996Z,48.27
2023-04-16T09:02:38.203Z,49.30
2023-04-16T09:05:07.744Z,49.83
2023-04-16T09:07:35.347Z,49.95
2023-04-16T09:10:03.667Z,49.85
2023-04-16T09:12:31.863Z,50.02
2023-04-16T09:15:03.005Z,49.92
2023-04-16T09:17:30.450Z,50.97
2023-04-16T09:19:57.521Z,51.78
2023-04-16T09:22:24.779Z,51.14
2023-04-16T09:24:51.835Z,51.36
2023-04-16T09:27:19.373Z,52.05
2023-04-16T09:29:46.444Z,53.07
2023-04-16T09:32:13.897Z,53.46
2023-04-16T09:35:01.843Z,52.78
2023-04-16T09:37:30.270Z,53.45
2023-04-16T09:40:01.587Z,53.29
2023-04-16T09:42:37.275Z,53.07
2023-04-16T09:45:05.919Z,52.86
2023-04-16T09:47:44.646Z,53.56
2023-04-16T09:50:19.828Z,52.94
2023-04-16T09:52:54.026Z,52.65
2023-04-16T09:55:27.463Z,52.29
2023-04-16T09:58:01.753Z,52.90
2023-04-16T10:00:30.491Z,53.06
2023-04-16T10:03:07.389Z,54.05
2023-04-16T10:05:35.036Z,53.88
2023-04-16T10:08:02.380Z,54.81
2023-04-16T10:10:30.270Z,55.02
2023-04-16T10:12:58.398Z,56.07
2023-04-16T10:15:25.871Z,57.13
2023-04-16T10:17:54.360Z,57.49
2023-04-16T10:20:22.827Z,56.54
2023-04-16T10:22:50.520Z,54.19
2023-04-16T10:25:18.415Z,53.52
2023-04-16T10:27:46.103Z,53.66
2023-04-16T10:30:15.739Z,53.48
2023-04-16T10:32:43.977Z,52.89
2023-04-16T10:35:16.078Z,53.76
2023-04-16T10:37:45.200Z,53.60
2023-04-16T10:40:24.015Z,53.78
2023-04-16T10:42:58.168Z,54.70
2023-04-16T10:45:38.299Z,57.21
2023-04-16T10:48:08.780Z,59.70
2023-04-16T10:50:39.975Z,61.78
2023-04-16T10:53:27.312Z,60.84
2023-04-16T10:56:04.560Z,60.07
2023-04-16T10:58:34.976Z,59.89
2023-04-16T11:01:08.256Z,59.44
2023-04-16T11:03:35.748Z,59.82
2023-04-16T11:06:14.665Z,60.78
2023-04-16T11:08:54.100Z,60.20
2023-04-16T11:11:22.683Z,59.80
2023-04-16T11:13:50.146Z,58.67
2023-04-16T11:16:17.645Z,58.74
2023-04-16T11:18:51.316Z,55.87
2023-04-16T11:21:19.892Z,54.64
2023-04-16T11:23:51.425Z,54.12
2023-04-16T11:26:26.825Z,54.14
2023-04-16T11:29:00.309Z,53.28
2023-04-16T11:31:27.604Z,52.14
2023-04-16T11:33:56.993Z,51.60
2023-04-16T11:36:26.211Z,51.96
2023-04-16T11:39:02.487Z,51.35
2023-04-16T11:41:29.667Z,50.92
2023-04-16T11:43:56.968Z,51.13
2023-04-16T11:46:27.795Z,52.29
2023-04-16T11:48:56.275Z,52.15
2023-04-16T11:51:24.073Z,51.78
2023-04-16T11:53:56.326Z,51.47
2023-04-16T11:56:31.686Z,50.99
2023-04-16T11:59:16.164Z,50.03
2023-04-16T12:01:58.266Z,49.88
2023-04-16T12:04:27.316Z,50.21
2023-04-16T12:07:14.209Z,50.83
2023-04-16T12:09:44.499Z,50.22
2023-04-16T12:12:28.507Z,49.99
2023-04-16T12:14:57.104Z,49.86
2023-04-16T12:17:24.570Z,49.33
2023-04-16T12:19:53.234Z,48.20
2023-04-16T12:22:31.020Z,48.37
2023-04-16T12:25:05.220Z,48.23
2023-04-16T12:27:53.789Z,47.82
2023-04-16T12:30:23.865Z,47.41
2023-04-16T12:33:12.126Z,47.07
2023-04-16T12:35:41.745Z,48.05
2023-04-16T12:38:09.321Z,48.46
2023-04-16T12:40:36.797Z,48.99
2023-04-16T12:43:04.249Z,48.21
2023-04-16T12:45:31.395Z,48.76
2023-04-16T12:47:58.556Z,49.18
2023-04-16T12:50:26.180Z,49.49
2023-04-16T12:52:53.315Z,48.40
2023-04-16T12:55:20.600Z,49.00
2023-04-16T12:57:49.182Z,49.44
2023-04-16T13:00:16.724Z,48.91
2023-04-16T13:02:43.889Z,49.34
2023-04-16T13:05:11.256Z,49.66
2023-04-16T13:07:38.363Z,49.98
2023-04-16T13:10:06.604Z,51.30
2023-04-16T13:12:33.670Z,51.06
2023-04-16T13:15:01.093Z,50.85
2023-04-16T13:17:28.265Z,50.96
2023-04-16T13:19:55.613Z,49.03
2023-04-16T13:22:23.037Z,49.63
2023-04-16T13:24:50.373Z,50.37
2023-04-16T13:27:18.084Z,49.83
2023-04-16T13:29:45.271Z,48.58
2023-04-16T13:32:14.170Z,49.65
2023-04-16T13:34:41.370Z,50.35
2023-04-16T13:37:08.722Z,50.84
2023-04-16T13:39:36.008Z,51.76
2023-04-16T13:42:03.414Z,52.43
2023-04-16T13:44:30.683Z,53.24
2023-04-16T13:46:58.163Z,53.05
2023-04-16T13:49:25.377Z,53.81
2023-04-16T13:51:52.485Z,54.45
2023-04-16T13:54:19.717Z,54.57
2023-04-16T13:56:47.003Z,54.35
2023-04-16T13:59:15.859Z,54.09
2023-04-16T14:01:43.236Z,54.71
2023-04-16T14:04:10.561Z,54.39
2023-04-16T14:06:37.724Z,53.46
2023-04-16T14:09:05.062Z,52.15
2023-04-16T14:11:32.290Z,50.72
2023-04-16T14:13:59.657Z,51.48
2023-04-16T14:16:27.554Z,52.05
2023-04-16T14:18:55.177Z,54.90
2023-04-16T14:21:22.611Z,57.98
2023-04-16T14:23:49.983Z,60.27
2023-04-16T14:26:17.387Z,61.84
2023-04-16T14:28:45.217Z,63.49
2023-04-16T14:31:12.870Z,63.28
2023-04-16T14:33:40.315Z,62.66
2023-04-16T14:36:08.213Z,62.65
2023-04-16T14:38:36.216Z,62.77
2023-04-16T14:41:04.605Z,63.13
2023-04-16T14:43:33.519Z,63.13
2023-04-16T14:46:00.905Z,62.25
2023-04-16T14:48:28.086Z,61.86
2023-04-16T14:50:55.650Z,61.11
2023-04-16T14:53:25.082Z,60.91
2023-04-16T14:55:53.578Z,60.94
2023-04-16T14:58:22.219Z,62.42
2023-04-16T15:00:49.674Z,62.90
2023-04-16T15:03:17.140Z,63.55
2023-04-16T15:05:44.685Z,64.10
2023-04-16T15:08:12.639Z,64.68
2023-04-16T15:10:39.775Z,63.61
2023-04-16T15:13:06.990Z,65.06
2023-04-16T15:15:34.087Z,65.39
2023-04-16T15:18:01.890Z,65.76
2023-04-16T15:20:29.712Z,65.18
2023-04-16T15:22:57.097Z,65.85
2023-04-16T15:25:25.707Z,65.52
2023-04-16T15:27:52.874Z,65.84
2023-04-16T15:30:20.232Z,64.42
2023-04-16T15:32:47.839Z,65.31
2023-04-16T15:35:15.483Z,65.71
2023-04-16T15:37:44.112Z,65.80
2023-04-16T15:40:11.962Z,65.78
2023-04-16T15:42:39.561Z,65.49
2023-04-16T15:45:07.456Z,66.23
2023-04-16T15:47:37.199Z,66.17
2023-04-16T15:50:06.359Z,66.04
2023-04-16T15:52:33.516Z,66.51
2023-04-16T15:55:02.980Z,65.84
2023-04-16T15:57:31.965Z,65.85
2023-04-16T16:00:06.969Z,65.84
2023-04-16T16:02:35.568Z,65.74
2023-04-16T16:05:03.925Z,66.19
2023-04-16T16:07:32.530Z,65.92
2023-04-16T16:10:00.744Z,65.71
2023-04-16T16:12:28.604Z,66.11
2023-04-16T16:14:57.019Z,66.79
2023-04-16T16:17:25.190Z,67.34
2023-04-16T16:19:53.300Z,67.54
2023-04-16T16:22:23.963Z,67.63
2023-04-16T16:24:53.409Z,67.76
2023-04-16T16:27:22.241Z,67.96
2023-04-16T16:29:50.556Z,68.15
2023-04-16T16:32:19.319Z,68.48
2023-04-16T16:34:47.253Z,68.59
2023-04-16T16:37:16.268Z,69.44
2023-04-16T16:39:45.271Z,69.99
2023-04-16T16:42:14.393Z,69.87
2023-04-16T16:44:42.381Z,69.71
2023-04-16T16:47:10.759Z,69.57
2023-04-16T16:49:38.245Z,69.47
2023-04-16T16:52:07.444Z,70.87
2023-04-16T16:54:37.228Z,71.08
2023-04-16T16:57:06.132Z,71.08
2023-04-16T16:59:35.130Z,71.14
2023-04-16T17:02:05.115Z,71.17
2023-04-16T17:04:33.120Z,71.11
2023-04-16T17:07:00.952Z,71.60
2023-04-16T17:09:30.516Z,72.11
2023-04-16T17:11:58.150Z,72.12
2023-04-16T17:14:26.254Z,72.14
2023-04-16T17:16:55.504Z,71.95
2023-04-16T17:19:24.839Z,72.15
2023-04-16T17:21:54.038Z,72.41
2023-04-16T17:24:22.746Z,72.73
2023-04-16T17:26:52.152Z,73.08
2023-04-16T17:29:26.350Z,73.00
2023-04-16T17:31:54.220Z,73.00
2023-04-16T17:34:21.962Z,73.16
2023-04-16T17:36:52.734Z,73.73
2023-04-16T17:39:21.391Z,74.33
2023-04-16T17:41:54.381Z,74.91
2023-04-16T17:44:23.408Z,75.18
2023-04-16T17:46:54.276Z,75.14
2023-04-16T17:49:21.666Z,75.54
2023-04-16T17:51:54.064Z,76.01
2023-04-16T17:54:21.289Z,76.79
2023-04-16T17:56:48.755Z,77.01
2023-04-16T17:59:16.265Z,76.93
2023-04-16T18:01:44.657Z,75.66
2023-04-16T18:04:12.498Z,75.81
2023-04-16T18:06:40.277Z,75.79
2023-04-16T18:09:07.631Z,75.54
2023-04-16T18:11:35.992Z,74.23
2023-04-16T18:14:03.314Z,70.95
2023-04-16T18:16:30.751Z,69.70
2023-04-16T18:18:58.033Z,69.00
2023-04-16T18:21:25.168Z,64.36
2023-04-16T18:23:52.278Z,64.11
2023-04-16T18:26:22.515Z,63.62
2023-04-16T18:28:50.364Z,61.93
2023-04-16T18:31:20.913Z,61.23
2023-04-16T18:36:19.263Z,60.50
2023-04-16T18:38:59.220Z,60.28
2023-04-16T18:41:28.033Z,60.34
2023-04-16T18:43:55.362Z,61.00
2023-04-16T18:46:22.882Z,61.66
2023-04-16T18:48:50.268Z,62.09
2023-04-16T18:51:19.312Z,62.63
2023-04-16T18:53:46.872Z,61.93
2023-04-16T18:56:14.608Z,61.31
2023-04-16T18:58:43.791Z,60.94
2023-04-16T19:01:14.192Z,61.13
2023-04-16T19:03:42.329Z,61.11
2023-04-16T19:06:11.148Z,61.23
2023-04-16T19:08:39.297Z,61.80
2023-04-16T19:11:07.448Z,63.00
2023-04-16T19:13:36.057Z,64.83
2023-04-16T19:16:06.715Z,65.72
2023-04-16T19:18:34.532Z,66.86
2023-04-16T19:21:03.029Z,67.06
2023-04-16T19:23:31.276Z,67.59
2023-04-16T19:25:59.007Z,68.65
2023-04-16T19:28:26.574Z,70.26
2023-04-16T19:30:55.068Z,70.50
2023-04-16T19:33:22.439Z,71.23
2023-04-16T19:35:49.857Z,71.26
2023-04-16T19:38:17.025Z,71.02
2023-04-16T19:40:46.385Z,71.18
2023-04-16T19:43:13.954Z,71.27
2023-04-16T19:45:48.091Z,71.37
2023-04-16T19:48:15.511Z,71.18
2023-04-16T19:50:43.282Z,71.08
2023-04-16T19:53:11.668Z,71.33
2023-04-16T19:55:42.336Z,71.09
2023-04-16T19:58:10.338Z,70.61
2023-04-16T20:00:41.842Z,70.08
2023-04-16T20:03:10.615Z,69.63
2023-04-16T20:05:38.177Z,69.54
2023-04-16T20:08:06.474Z,69.73
2023-04-16T20:10:34.536Z,69.79
2023-04-16T20:13:02.581Z,70.21
2023-04-16T20:15:31.245Z,70.46
2023-04-16T20:17:59.256Z,70.51
2023-04-16T20:20:27.511Z,70.73
2023-04-16T20:22:55.152Z,70.71
2023-04-16T20:25:22.882Z,70.91
2023-04-16T20:27:50.762Z,70.74
2023-04-16T20:30:21.281Z,70.25
2023-04-16T20:32:49.407Z,69.38
2023-04-16T20:35:17.127Z,67.83
2023-04-16T20:37:44.626Z,64.54
2023-04-16T20:40:14.216Z,61.25
2023-04-16T20:42:46.471Z,60.63
2023-04-16T20:45:13.918Z,60.43
2023-04-16T20:47:41.258Z,60.40
2023-04-16T20:50:08.901Z,60.64
2023-04-16T20:52:36.602Z,60.68
2023-04-16T20:55:04.277Z,60.69
2023-04-16T20:57:32.185Z,60.44
2023-04-16T20:59:59.372Z,59.91
2023-04-16T21:02:28.377Z,60.27
2023-04-16T21:04:56.016Z,60.14
2023-04-16T21:07:23.394Z,60.17
2023-04-16T21:09:50.661Z,60.08
2023-04-16T21:12:17.680Z,60.08
2023-04-16T21:14:44.879Z,60.51
2023-04-16T21:17:12.009Z,60.52
2023-04-16T21:19:40.260Z,60.34
2023-04-16T21:22:07.513Z,60.73
2023-04-16T21:24:34.546Z,60.66
2023-04-16T21:27:01.906Z,61.03
2023-04-16T21:29:29.513Z,60.96
2023-04-16T21:31:56.751Z,60.99
2023-04-16T21:34:23.950Z,60.98
2023-04-16T21:36:51.258Z,61.04
2023-04-16T21:39:19.997Z,59.57
2023-04-16T21:41:47.612Z,58.98
2023-04-16T21:44:15.589Z,59.05
2023-04-16T21:46:42.828Z,59.55
2023-04-16T21:49:10.095Z,60.84
2023-04-16T21:51:38.690Z,61.89
2023-04-16T21:54:07.550Z,62.01
2023-04-16T21:56:34.553Z,61.62
2023-04-16T21:59:01.733Z,61.79
2023-04-16T22:01:29.221Z,61.35
2023-04-16T22:03:56.390Z,60.73
2023-04-16T22:06:23.628Z,60.45
2023-04-16T22:08:50.740Z,60.07
2023-04-16T22:11:18.029Z,59.77
2023-04-16T22:13:46.458Z,59.86
2023-04-16T22:16:13.871Z,60.11
2023-04-16T22:18:41.279Z,60.16
2023-04-16T22:21:08.535Z,60.27
2023-04-16T22:23:35.716Z,60.52
2023-04-16T22:26:03.095Z,60.77
2023-04-16T22:28:30.132Z,60.72
2023-04-16T22:30:57.260Z,61.12
2023-04-16T22:33:24.296Z,61.48
2023-04-16T22:35:51.416Z,61.38
2023-04-16T22:38:18.646Z,62.05
2023-04-16T22:40:49.078Z,62.30
2023-04-16T22:43:17.774Z,62.31
2023-04-16T22:45:46.545Z,62.51
2023-04-16T22:48:13.837Z,62.27
2023-04-16T22:50:46.071Z,62.25
2023-04-16T22:53:13.138Z,62.15
2023-04-16T22:55:40.201Z,62.38
2023-04-16T22:58:07.174Z,62.31
2023-04-16T23:00:34.469Z,61.91
2023-04-16T23:03:01.751Z,61.66
2023-04-16T23:05:29.170Z,62.08
2023-04-16T23:07:56.484Z,62.01
2023-04-16T23:10:23.491Z,62.45
2023-04-16T23:12:50.661Z,62.76
2023-04-16T23:15:18.155Z,62.92
2023-04-16T23:17:46.148Z,62.88
2023-04-16T23:20:14.408Z,62.94
2023-04-16T23:22:41.725Z,63.27
2023-04-16T23:25:09.385Z,63.39
2023-04-16T23:27:37.154Z,63.68
2023-04-16T23:30:04.646Z,64.13
2023-04-16T23:32:32.079Z,64.30
2023-04-16T23:34:59.291Z,64.31
2023-04-16T23:37:26.504Z,64.43
2023-04-16T23:39:53.572Z,64.50
2023-04-16T23:42:20.797Z,64.87
2023-04-16T23:44:47.824Z,64.49
2023-04-16T23:47:14.931Z,64.30
2023-04-16T23:49:42.127Z,64.58
2023-04-16T23:52:09.114Z,64.13
2023-04-16T23:54:36.211Z,63.57
2023-04-16T23:57:03.380Z,63.50
2023-04-16T23:59:30.421Z,63.54
